Logo AVAMET
Benvolgut visitant, si us plau, ingressa Recuperar contrasenya
AVAMET paisatges

Callosa d′en Sarrià el Colomer

Dades diàries. Acumulats / Últims 30 dies disponibles

Data Temperatura (°C) Humitat rel. (%) Pressió rel. (hPa) Vent (km/h) Precipitació
Mínima Mitjana Màxima Amplitud
tèrmica
Mínima Mitjana Màxima Mínima Mitjana Màxima Predom. Mitjana Ràfega
màxima
Total
(mm)
Índex-n
Mínima Mitjana Màxima Mínima Mitjana Màxima n
0 a 1
P0 max
mm 5'
Dades mensuals acumulades fins l'últim dia disponible
02/2021 6,1 10,4 16,7 13,8 11,9 17,6 23,3 17,2 27 67 96 1.000 1.017 1.035   8,1 104,6 8,6
Dades anuals acumulades fins l'últim dia disponible
2021 3,4 9,3 16,7 12,6 8,1 16,4 25,6 22,2 26 64 96 1.000 1.016 1.035   8,6 104,6 61,6
Últims 30 dies disponibles
28-02-2021 10,1     12,2     15,2 5,1 65 74 81 1.020 1.022 1.023 SSE 6,3 32,2 0,0
27-02-2021 8,3     10,9     15,7 7,4 63 75 85 1.021 1.024 1.027 OSO 4,8 19,3 0,0
26-02-2021 10,7     12,8     15,6 4,9 61 73 83 1.026 1.027 1.029 SO 13,3 40,2 0,0
25-02-2021 9,9     12,9     16,9 7,0 65 77 85 1.027 1.029 1.031 SO 3,2 22,5 0,0
24-02-2021 10,2     13,5     16,7 6,5 58 74 86 1.030 1.032 1.034 S 9,2 32,2 0,0
23-02-2021 11,2     13,3     15,7 4,5 50 66 79 1.024 1.030 1.034 SO 10,8 37,0 0,0
22-02-2021 11,3     13,5     14,9 3,6 49 55 65 1.012 1.017 1.024 ONO 12,8 43,5 0,0
21-02-2021 12,5     14,5     16,8 4,3 63 74 89 1.001 1.007 1.014 O 11,9 41,8 0,0
20-02-2021 7,3     11,9     17,4 10,1 59 80 94 1.014 1.017 1.019 OSO 4,1 25,7 0,0
19-02-2021 7,0     11,6     17,4 10,4 67 86 96 1.018 1.019 1.021 S 1,7 16,1 0,0
18-02-2021 6,8     11,5     16,4 9,6 55 80 95 1.016 1.018 1.020 S 1,7 16,1 0,0
17-02-2021 7,6     13,0     18,9 11,3 46 71 94 1.019 1.021 1.024 S 1,2 19,3 0,0
16-02-2021 6,1     10,5     16,4 10,3 64 80 91 1.023 1.027 1.032 SSO 1,9 17,7 0,2
15-02-2021 8,1     10,4     11,9 3,8 82 92 96 1.032 1.033 1.035 SE 0,7 9,7 8,4 0,58 0,60
14-02-2021 10,2     12,7     17,2 7,0 52 70 87 1.024 1.029 1.033 S 6,2 37,0 0,0
13-02-2021 10,9     15,7     20,4 9,5 32 53 77 1.018 1.021 1.024 SO 13,3 66,0 0,0
12-02-2021 14,8     18,3     21,6 6,8 27 49 76 1.014 1.016 1.018 O 14,9 64,4 0,0
11-02-2021 10,1     17,0     22,7 12,6 43 53 62 1.015 1.017 1.018 SO 4,4 27,4 0,0
10-02-2021 12,1     16,1     19,7 7,6 31 45 67 1.004 1.009 1.015 OSO 11,6 70,8 0,0
09-02-2021 12,2     13,5     14,8 2,6 44 56 68 1.003 1.006 1.009 S 5,9 56,3 0,0
08-02-2021 11,6     14,4     17,6 6,0 38 51 68 1.000 1.003 1.007 OSO 13,9 78,9 0,0
07-02-2021 11,4     14,2     16,9 5,5 41 54 70 1.002 1.003 1.005 OSO 12,0 56,3 0,0
06-02-2021 10,6     13,3     18,3 7,7 53 76 88 1.000 1.001 1.002 S 7,0 37,0 0,0
05-02-2021 12,2     14,3     16,7 4,5 63 70 79 1.001 1.005 1.010 S 11,7 37,0 0,0
04-02-2021 8,8     13,0     16,9 8,1 62 79 94 1.008 1.010 1.012 SSE 1,8 16,1 0,0
03-02-2021 10,4     14,4     19,0 8,6 59 69 83 1.011 1.013 1.014 SSO 1,1 12,9 0,0
02-02-2021 12,4     18,1     23,3 10,9 39 52 70 1.012 1.014 1.016 SSO 9,9 72,4 0,0
01-02-2021 16,7     19,2     22,9 6,2 33 44 54 1.005 1.009 1.014 ONO 28,1 104,6 0,0
31-01-2021 13,1     16,0     18,6 5,5 44 51 57 1.007 1.008 1.010 O 23,7 93,3 0,0
30-01-2021 15,2     18,3     22,7 7,5 30 44 65 1.007 1.009 1.015 OSO 14,4 83,7 0,0
Últims 13 mesos disponibles
02/2021 6,1 10,4 16,7 13,8 11,9 17,6 23,3 17,2 44 67 92 1.001 1.017 1.033 S 8,1 104,6 8,6
01/2021 3,4 8,3 16,7 11,5 8,1 15,3 25,6 22,2 40 61 89 1.003 1.015 1.026 OSO 9,2 96,6 53,0
12/2020 4,4 9,4 15,2 12,8 11,6 16,7 22,6 18,2 35 58 80 996 1.013 1.027 SO 9,0 88,5 3,4
11/2020 8,8 12,6 17,3 15,8 15,7 20,0 24,8 16,0 62 75 91 1.004 1.020 1.027 SO 5,0 53,1 36,2
10/2020 11,0 14,6 18,9 17,9 19,2 22,9 28,2 17,2 42 59 80 995 1.016 1.024 O 6,0 80,5 3,6
09/2020 13,9 19,4 23,7 22,8 22,9 27,1 30,9 17,0 34 62 75 1.010 1.016 1.022 SSO 5,8 62,8 2,0
08/2020 17,3 21,8 24,1 26,1 24,4 30,7 35,3 18,0 49 67 84 1.001 1.012 1.017 S 4,5 46,7 7,2
07/2020 19,2 22,0 26,2 25,9 26,1 30,4 36,3 17,1 40 63 84 1.010 1.014 1.019 S 5,8 41,8 1,2
06/2020 13,4 17,9 21,9 22,5 19,6 26,9 33,0 19,6 44 67 86 1.003 1.013 1.020 SSE 5,7 72,4 71,2
05/2020 13,1 16,8 21,3 20,8 19,1 25,4 30,4 17,3 47 60 78 1.004 1.015 1.025 SSO 6,7 53,1 23,2
04/2020 8,0 12,2 16,1 15,6 15,1 19,6 25,6 17,6 45 70 88 1.004 1.014 1.024 SSO 6,6 59,5 24,8
03/2020 6,7 11,3 17,1 14,3 10,1 18,0 24,7 18,0 42 67 90 1.006 1.015 1.023 OSO 9,0 96,6 84,2
02/2020 5,7 10,0 14,6 14,5 14,3 19,2 26,8 21,1 30 68 91 1.013 1.024 1.031 SSO 4,3 49,9 4,6
Tots els anys disponibles
2020 4,4 14,7 26,2 18,4 10,1 22,8 36,3 31,9 30 66 94 995 1.016 1.031 SSO 6,2 99,8 487,0
2019 3,5 14,4 26,5 18,2 11,6 22,4 39,5 36,0 31 63 91 994 1.015 1.031 SSO 7,0 109,4 744,0
2018 3,2 14,5 26,9 18,1 8,8 22,2 35,4 32,2 35 65 87 992 1.014 1.032 SSO 6,3 107,8 548,2
2017 1,3 9,2 16,8 13,0 7,6 16,8 27,8 26,5 62 64 66 1.018 1.018 1.019 97,0 609,0
2016 4,1 14,5 25,9 18,3 12,2 22,1 36,6 32,5 57 64 76 1.013 1.017 1.025 93,0 486,4
2015 1,1 14,5 20,8 18,7 21,9 22,9 38,2 37,1 52 62 73 1.015 1.019 1.029 8,6 97,0 428,4
Temperatura (°C)
Humitat relativa (%)
Velocitat del vent i ràfega màxima (km/h)
Direcció del vent (°)
Pressió (hPa)
Precipitació (mm)
Nota sobre les dades: s'avisa a l'usuari de la provisionalitat i no oficialitat d'aquestes dades
Logo AVAMET blanc
Web allotjada a Sollutia
Llicència de Creative CommonsLa web d'AVAMET i els seus continguts estan subjectes a una llicència de
Reconeixement - No Comercial - Compartir igual
Avís legal - Política de privacitat - Política de cookies
NOVES ESTACIONS: Sollana - l'Albufera/Tancat de Milia (Soci),  Barx - la Falaguera (Soci), l'Alqueria d'Asnar (Soci), Barx (Soci), Font de la Figuera - El Carrascal, Sagunt - Casc Urbà, Tous & Casinos - Aj. (Inforatge), Alcoi - Círculo Industrial (Soci), Requena - San Antonio (Soci), Beniatjar (Soci), Elx - Carrús (Soci), Castelló de la Plana - Serradal (Soci), Teulada - El Pla (Soci), Dénia - la Xara (Soci) - - -